Date,TemperatureHighF,TemperatureAvgF,TemperatureLowF,DewpointHighF,DewpointAvgF,DewpointLowF,HumidityHigh,HumidityAvg,HumidityLow,PressureMaxIn,PressureMinIn,WindSpeedMaxMPH,WindSpeedAvgMPH,GustSpeedMaxMPH,PrecipitationSumIn
2013-1-1,48.3,41.6,35.0,44.2,36.6,29.8,86,82,77,30.14,29.97,2,0,6,0.47
2013-1-2,44.8,39.2,36.1,40.1,34.6,31.4,89,83,82,30.17,29.92,5,0,6,0.03
2013-1-3,38.9,34.4,27.6,33.4,30.0,23.4,84,84,78,30.36,30.12,4,0,9,0.00
2013-1-4,41.8,29.8,23.0,31.8,23.7,19.2,92,78,46,30.45,30.30,9,0,12,0.00
2013-1-5,48.0,33.4,22.4,35.5,26.6,18.6,92,77,43,30.47,30.24,6,0,12,0.01
2013-1-6,46.8,38.1,33.5,39.6,32.6,29.2,84,81,68,30.26,30.07,12,1,15,0.00
2013-1-7,53.5,34.5,26.4,35.0,27.2,22.5,85,77,31,30.44,30.23,14,1,16,0.00
2013-1-8,54.9,35.8,26.6,40.4,29.4,22.7,92,79,44,30.50,30.33,4,0,5,0.01
2013-1-9,52.0,43.0,34.2,45.7,38.0,29.9,84,82,79,30.50,30.39,4,0,5,0.00
2013-1-10,66.8,52.7,44.6,54.2,46.2,39.6,83,79,62,30.50,30.28,10,0,17,0.07
2013-1-11,56.0,52.4,49.4,53.7,48.5,43.5,93,87,80,30.28,30.08,10,0,14,0.16
2013-1-12,71.2,57.3,50.3,65.7,53.2,45.6,93,87,67,30.14,30.01,4,0,6,0.05
2013-1-13,68.2,60.9,50.3,58.4,53.5,45.6,85,77,65,30.04,29.94,14,2,22,0.03
2013-1-14,58.4,54.2,45.4,57.1,52.2,44.9,98,93,81,30.17,29.97,6,0,7,1.62
2013-1-15,54.2,49.3,45.4,53.6,48.7,44.9,98,98,97,30.12,29.95,2,0,4,1.10
2013-1-16,57.9,51.2,47.8,57.1,50.6,47.3,98,97,97,30.01,29.90,4,0,5,0.40
2013-1-17,51.6,44.0,32.1,50.8,43.0,28.2,99,96,81,30.24,29.79,10,0,21,2.46
2013-1-18,43.5,32.0,26.6,30.8,25.6,17.8,92,78,38,30.55,30.24,7,0,15,0.00
2013-1-19,46.5,32.3,23.9,43.7,28.7,22.4,95,87,60,30.52,30.23,6,0,6,0.01
2013-1-20,55.9,37.5,28.6,37.9,30.2,25.9,93,78,35,30.23,30.10,17,1,25,0.01
2013-1-21,52.4,36.0,27.0,32.1,23.7,12.9,94,66,33,30.15,29.98,15,1,25,0.00
2013-1-22,36.2,26.2,19.0,14.4,6.6,-3.0,70,45,23,30.30,30.06,12,2,20,0.00
2013-1-23,44.0,27.3,18.0,26.8,16.9,8.8,85,66,40,30.40,30.12,5,0,12,0.00
2013-1-24,43.5,33.8,21.6,29.2,17.2,4.6,73,52,26,30.41,30.04,12,2,36,0.00
2013-1-25,48.4,28.0,19.9,41.0,20.6,7.4,96,75,51,30.44,30.09,7,0,23,0.05
2013-1-26,48.3,33.6,27.3,35.2,30.1,25.8,97,88,48,30.38,30.18,1,0,4,0.00
2013-1-27,46.0,33.2,23.7,34.1,28.3,22.2,96,83,62,30.53,30.37,3,0,9,0.03
2013-1-28,64.5,43.1,30.9,47.7,38.1,29.8,97,85,48,30.46,30.24,5,0,14,0.00
2013-1-29,69.5,52.0,39.2,54.9,46.3,38.0,97,83,47,30.27,29.94,9,0,17,0.06
2013-1-30,67.0,56.8,42.9,59.4,53.2,37.6,97,88,72,29.94,29.40,17,2,34,1.85
2013-1-31,43.3,35.0,29.3,38.7,22.3,15.7,89,61,39,30.02,29.48,21,3,31,0.03
2013-2-1,37.0,26.5,18.0,23.9,8.1,1.3,77,47,28,30.37,29.98,17,3,22,0.00
2013-2-2,39.7,32.9,17.4,33.1,25.2,12.5,93,74,48,30.37,30.05,9,1,20,0.01
2013-2-3,43.6,35.8,29.7,32.2,24.9,21.2,88,65,44,30.05,29.89,17,3,25,0.03
2013-2-4,50.6,34.1,23.8,34.5,24.4,16.8,85,69,39,30.13,29.98,9,0,21,0.00
2013-2-5,55.5,39.7,29.5,40.7,30.8,25.8,89,73,38,30.01,29.92,12,1,21,0.00
2013-2-6,58.7,41.3,31.5,34.6,29.6,21.2,92,68,24,30.26,30.01,13,1,16,0.00
2013-2-7,45.3,40.2,35.0,40.6,35.0,26.9,97,83,52,30.27,30.02,3,0,4,0.26
2013-2-8,49.4,41.3,33.3,45.0,36.8,26.7,98,85,55,30.18,29.94,16,1,21,0.01
2013-2-9,57.5,37.0,27.6,30.4,24.0,12.4,86,64,17,30.37,30.18,16,1,16,0.00
2013-2-10,53.2,41.2,31.8,48.0,31.1,16.2,100,72,24,30.39,30.12,11,1,14,0.36
2013-2-11,58.0,49.4,39.6,52.4,44.0,29.0,98,83,45,30.13,29.99,14,1,24,0.04
2013-2-12,50.8,40.7,31.6,39.5,32.5,24.9,96,75,39,30.17,29.95,5,0,8,0.25
2013-2-13,52.7,40.7,33.7,44.9,36.0,28.2,96,84,54,29.94,29.65,19,2,24,0.19
2013-2-14,54.0,37.4,27.8,33.8,28.8,22.7,93,74,30,30.17,29.93,11,1,14,0.00
2013-2-15,55.3,38.8,28.0,36.8,30.2,26.8,96,76,34,30.23,30.07,15,1,22,0.03
2013-2-16,33.8,29.0,22.0,29.8,21.5,7.5,88,74,53,30.16,29.99,17,2,30,0.02
2013-2-17,33.6,24.9,19.8,17.1,9.7,5.4,82,54,32,30.41,30.14,20,4,36,0.01
2013-2-18,54.2,34.6,20.2,30.5,21.7,15.9,88,63,31,30.50,30.25,20,1,26,0.00
2013-2-19,49.7,40.0,30.8,40.8,27.1,12.4,100,63,34,30.25,29.98,10,2,30,0.14
2013-2-20,48.2,34.5,25.1,20.0,10.2,-3.2,76,40,13,30.28,30.15,9,2,31,0.00
2013-2-21,60.2,38.0,22.5,37.9,22.1,11.9,95,60,15,30.34,30.17,4,0,10,0.32
2013-2-22,42.2,38.7,35.6,38.9,36.4,32.0,96,91,82,30.35,30.17,4,0,12,0.29
2013-2-23,53.2,45.7,38.4,49.9,44.2,37.6,98,95,85,30.18,29.92,1,0,4,0.19
2013-2-24,57.2,40.5,29.5,42.1,31.5,19.3,98,76,25,30.17,29.95,12,1,25,0.00
2013-2-25,48.8,36.8,28.8,32.5,28.0,24.1,94,73,40,30.23,30.10,7,1,15,0.02
2013-2-26,43.8,37.3,33.0,41.3,35.6,31.3,97,94,73,30.11,29.64,6,1,21,1.51
2013-2-27,55.4,42.9,33.8,37.3,30.6,25.1,83,63,34,29.90,29.76,8,2,28,0.00
2013-2-28,40.1,34.8,30.7,26.8,24.3,21.7,76,65,54,30.02,29.81,8,2,23,0.00
2013-3-1,36.2,32.8,30.1,28.4,26.0,24.3,83,76,67,30.06,30.01,7,1,17,0.00
2013-3-2,38.5,31.5,25.4,28.9,24.8,18.9,95,77,52,30.09,29.97,8,2,21,0.03
2013-3-3,34.1,25.7,21.7,21.1,16.9,13.9,85,70,51,30.19,30.07,10,2,20,0.01
2013-3-4,52.4,34.9,23.2,29.2,18.4,8.6,81,54,22,30.29,30.16,7,2,18,0.00
2013-3-5,47.2,39.2,32.4,45.6,34.1,25.7,97,82,63,30.19,29.75,10,1,27,0.56
2013-3-6,34.3,29.5,25.5,25.9,23.1,19.3,86,77,63,30.31,29.78,14,4,37,0.00
2013-3-7,43.8,32.3,25.1,32.5,25.8,22.6,92,78,51,30.44,30.31,7,2,16,0.00
2013-3-8,54.4,33.4,21.5,29.0,23.5,17.9,95,73,25,30.49,30.39,8,1,18,0.01
2013-3-9,65.7,42.4,26.1,37.5,28.4,22.2,89,63,22,30.46,30.31,7,1,14,0.00
2013-3-10,66.7,49.6,35.6,37.0,33.5,29.2,86,58,27,30.35,30.19,8,1,18,0.00
2013-3-11,55.5,50.3,43.2,50.8,46.3,35.6,97,86,72,30.22,29.89,8,1,27,0.91
2013-3-12,52.6,43.7,31.6,49.0,39.2,29.8,98,85,58,30.14,29.84,7,1,15,0.29
2013-3-13,44.6,35.1,28.1,30.8,23.3,17.0,94,65,36,30.32,30.14,12,2,32,0.00
2013-3-14,46.5,31.9,22.6,21.9,15.2,7.4,72,53,21,30.43,30.30,11,3,23,0.29
2013-3-15,66.6,45.5,27.6,42.0,30.6,18.1,90,60,26,30.35,30.03,7,1,20,0.00
2013-3-16,73.7,60.4,47.4,46.3,42.7,40.3,79,54,31,30.04,29.82,9,2,30,0.00
2013-3-17,72.4,57.7,40.8,48.4,43.5,35.7,92,63,27,30.01,29.79,6,1,17,0.00
2013-3-18,50.1,43.6,36.2,44.7,40.6,27.7,98,90,67,30.05,29.84,6,1,26,0.62
2013-3-19,54.9,42.7,29.4,43.7,25.6,12.7,98,55,25,30.19,29.95,12,2,26,0.01
2013-3-20,52.1,37.4,20.7,30.2,15.3,4.3,92,47,15,30.21,29.83,9,2,25,0.00
2013-3-21,35.9,27.6,20.7,27.7,14.8,6.7,90,60,36,30.10,29.90,13,2,23,0.02
2013-3-22,47.2,35.5,21.2,35.2,21.0,14.3,94,59,30,30.19,29.99,5,1,12,0.07
2013-3-23,55.1,43.6,33.3,44.4,38.2,24.9,97,82,61,30.15,29.76,6,1,14,0.07
2013-3-24,46.9,41.2,29.5,42.2,37.8,21.0,97,88,65,30.07,29.56,7,1,27,0.80
2013-3-25,39.2,31.7,26.5,36.9,23.2,19.8,97,71,59,30.10,29.68,10,3,38,0.04
2013-3-26,37.5,31.3,26.6,26.8,22.7,20.2,86,70,58,30.18,29.97,18,4,20,0.03
2013-3-27,45.6,33.1,27.7,27.5,23.3,19.7,85,68,44,30.25,30.16,18,4,20,0.01
2013-3-28,49.3,35.6,26.2,26.3,20.9,11.2,87,61,22,30.32,30.20,18,3,29,0.00
2013-3-29,53.2,40.3,26.8,39.3,31.0,18.1,98,74,27,30.42,30.16,11,1,26,0.09
2013-3-30,61.8,46.9,37.9,47.5,40.7,36.9,98,81,44,30.32,30.07,8,0,9,0.46
2013-3-31,62.3,51.8,45.7,53.8,47.8,43.4,98,87,56,30.07,29.88,15,1,22,0.38
2013-4-1,61.3,51.0,39.2,50.0,40.1,32.1,98,70,38,30.02,29.90,15,2,25,0.08
2013-4-2,55.5,44.1,32.4,35.1,27.7,17.0,85,55,26,30.17,30.01,15,2,23,0.00
2013-4-3,57.9,44.6,31.9,31.0,26.1,18.9,75,51,26,30.25,30.15,9,2,12,0.00
2013-4-4,45.9,38.1,34.3,37.0,32.8,23.1,96,83,41,30.24,29.95,8,0,12,0.67
2013-4-5,57.7,44.2,37.2,43.8,38.2,34.5,97,81,44,30.11,29.93,13,1,15,0.00
2013-4-6,68.2,49.9,34.9,40.3,35.4,31.4,94,63,28,30.24,30.10,13,2,18,0.00
2013-4-7,69.1,53.7,39.1,45.7,40.2,35.2,90,63,34,30.23,30.09,10,2,16,0.00
2013-4-8,75.1,58.3,43.9,53.0,46.9,41.7,94,69,37,30.20,30.08,10,1,20,0.00
2013-4-9,80.5,63.4,47.5,58.7,51.7,46.1,96,69,42,30.26,30.14,10,2,15,0.00
2013-4-10,83.5,65.6,49.3,58.7,52.6,47.6,95,67,36,30.19,30.02,12,2,17,0.00
2013-4-11,77.4,63.4,52.5,61.2,53.9,46.6,97,74,36,30.04,29.76,12,2,17,2.53
2013-4-12,69.0,59.8,46.6,59.0,47.4,26.2,98,70,21,29.94,29.69,20,2,29,0.50
2013-4-13,70.0,53.7,40.9,46.2,36.8,24.8,87,58,19,30.10,29.93,14,2,17,0.00
2013-4-14,68.9,53.9,40.5,48.6,40.2,34.6,92,64,29,30.13,30.01,12,2,18,0.02
2013-4-15,67.1,56.6,49.7,57.6,52.7,48.3,98,87,68,30.25,30.02,12,1,15,0.11
2013-4-16,77.2,62.4,49.7,60.3,55.2,48.9,98,79,50,30.33,30.22,12,1,17,0.00
2013-4-17,74.3,61.5,53.9,63.4,57.1,52.6,96,86,60,30.34,30.20,10,1,20,0.22
2013-4-18,73.3,63.5,55.0,60.6,56.1,52.6,98,79,49,30.20,30.00,16,1,23,0.01
2013-4-19,65.3,59.3,42.3,62.5,55.7,35.0,96,88,73,30.01,29.79,12,2,18,0.79
2013-4-20,57.9,44.6,34.0,35.6,29.3,19.4,85,58,25,30.31,30.00,15,3,21,0.00
2013-4-21,60.9,46.3,33.4,38.4,32.9,27.6,91,64,32,30.44,30.31,14,2,17,0.00
2013-4-22,64.8,48.7,39.5,43.2,38.0,34.5,90,69,35,30.41,30.20,10,2,15,0.00
2013-4-23,71.8,52.8,35.3,47.4,38.9,31.2,92,63,32,30.30,30.10,13,2,17,0.00
2013-4-24,71.6,56.3,43.4,59.3,48.9,41.8,95,79,42,30.16,30.05,14,1,22,0.07
2013-4-25,65.2,51.1,40.8,48.7,37.0,26.0,92,63,26,30.37,30.15,14,3,18,0.00
2013-4-26,68.5,52.5,36.9,43.7,36.4,30.5,92,59,28,30.44,30.30,14,2,16,0.00
2013-4-27,53.3,50.8,48.8,50.5,47.8,42.3,97,90,67,30.41,30.25,1,0,4,0.91
2013-4-28,51.0,49.1,46.5,50.5,48.4,45.6,98,97,96,30.26,30.04,6,0,12,1.54
2013-4-29,71.0,56.9,49.6,58.0,52.3,45.7,99,87,44,30.10,29.99,8,1,8,0.01
2013-4-30,74.5,60.0,47.9,57.3,52.4,47.1,99,79,41,30.23,30.05,12,2,17,0.00
2013-5-1,65.0,58.3,55.0,55.0,51.8,49.6,93,80,59,30.33,30.23,18,2,21,0.00
2013-5-2,60.8,55.5,52.8,57.2,52.4,50.1,96,90,80,30.34,30.27,8,1,14,0.09
2013-5-3,57.6,53.6,51.0,52.5,50.5,47.5,97,90,71,30.28,30.13,11,1,16,0.13
2013-5-4,52.3,48.1,45.8,50.1,45.9,40.2,100,92,75,30.13,30.00,8,1,14,0.97
2013-5-5,50.0,47.7,45.2,49.2,46.9,44.4,100,97,96,30.02,29.86,10,1,14,4.91
2013-5-6,65.9,53.3,42.7,51.2,45.4,37.2,100,78,40,29.95,29.81,16,2,20,0.23
2013-5-7,66.9,52.2,42.0,50.9,45.3,40.2,100,80,40,30.01,29.91,12,1,15,0.01
2013-5-8,67.5,56.0,47.7,57.8,52.0,46.9,98,87,60,30.12,29.98,10,1,13,0.05
2013-5-9,75.1,60.1,46.8,60.3,52.9,46.2,99,80,44,30.19,30.09,15,1,22,0.01
2013-5-10,77.1,62.9,51.0,61.4,55.3,49.9,97,79,45,30.20,30.04,7,0,10,0.00
2013-5-11,73.8,61.9,54.3,59.9,55.7,52.3,97,82,50,30.07,29.92,14,1,16,0.18
2013-5-12,62.2,53.4,42.4,53.0,40.5,28.5,94,65,31,30.13,29.98,17,3,23,0.00
2013-5-13,60.4,48.3,38.0,36.2,30.3,16.7,82,55,19,30.24,30.13,15,2,20,0.00
2013-5-14,73.9,54.7,37.2,51.1,41.0,33.0,87,64,32,30.28,30.14,8,1,14,0.00
2013-5-15,85.4,67.8,51.3,59.1,52.4,48.4,93,61,31,30.21,30.07,12,2,21,0.00
2013-5-16,77.8,64.8,54.0,58.1,53.9,47.6,89,70,40,30.15,30.06,13,1,14,0.00
2013-5-17,80.2,65.3,53.7,60.8,55.6,51.5,96,73,39,30.21,30.11,10,1,13,0.00
2013-5-18,69.0,63.1,59.6,64.4,60.3,54.8,98,91,78,30.19,30.12,0,0,1,0.94
2013-5-19,74.0,64.0,58.5,67.7,62.3,57.9,100,94,77,30.20,30.05,6,0,7,0.28
2013-5-20,81.0,66.3,59.3,69.2,62.4,58.7,100,89,55,30.16,30.01,7,0,9,0.00
2013-5-21,80.5,65.8,56.6,70.1,62.3,56.0,99,89,59,30.11,29.99,8,1,12,0.02
2013-5-22,75.7,64.1,56.6,69.2,61.8,55.8,99,92,70,30.06,29.92,6,0,6,0.59
2013-5-23,77.0,64.3,57.5,65.9,59.7,53.1,99,87,44,29.99,29.90,7,1,13,0.08
2013-5-24,65.6,57.7,46.7,55.4,46.5,36.7,93,68,37,30.24,29.97,13,2,17,0.00
2013-5-25,74.2,55.4,40.7,46.9,38.6,28.0,93,59,21,30.33,30.20,10,1,14,0.00
2013-5-26,72.6,57.0,48.2,53.8,46.5,37.3,95,70,36,30.30,30.19,7,0,13,0.04
2013-5-27,78.2,63.0,48.2,61.9,54.2,46.8,96,75,48,30.28,30.16,9,1,14,0.00
2013-5-28,81.5,66.8,55.8,65.6,57.7,54.4,96,75,45,30.26,30.16,12,1,16,0.00
2013-5-29,81.3,70.3,54.9,65.7,60.0,54.1,98,72,50,30.28,30.18,9,1,13,0.00
2013-5-30,80.2,66.9,55.2,63.7,58.9,54.4,98,78,49,30.32,30.19,16,2,20,0.00
2013-5-31,81.0,68.5,58.4,63.1,58.8,55.2,97,74,43,30.26,30.15,8,1,15,0.00
2013-6-1,81.8,69.8,60.2,66.0,60.3,53.2,97,75,38,30.17,30.06,8,1,16,0.00
2013-6-2,68.7,64.8,62.5,66.6,63.5,61.6,98,96,90,30.10,29.95,3,0,8,0.87
2013-6-3,77.1,66.8,59.5,67.8,61.9,58.7,99,86,55,30.04,29.92,9,1,13,0.00
2013-6-4,79.1,67.1,56.0,65.0,60.4,55.2,98,81,51,30.13,30.01,7,1,11,0.00
2013-6-5,78.5,68.3,61.3,68.0,63.7,60.2,97,86,64,30.14,30.00,10,1,17,1.12
2013-6-6,75.0,66.0,60.3,69.5,64.1,59.7,98,94,74,30.03,29.82,3,0,7,0.08
2013-6-7,77.5,66.7,62.7,70.0,64.7,61.8,99,94,65,29.90,29.75,6,0,12,0.45
2013-6-8,70.8,63.4,59.0,65.8,61.7,58.4,98,95,84,30.15,29.89,1,0,5,0.40
2013-6-9,79.9,66.4,57.6,70.3,63.3,56.8,98,91,68,30.20,30.07,7,0,13,0.98
2013-6-10,74.1,65.3,59.0,67.5,62.8,57.7,99,92,58,30.08,29.95,11,0,17,0.73
2013-6-11,80.6,67.1,59.0,67.4,62.3,57.9,99,86,50,30.09,30.00,9,1,14,0.11
2013-6-12,85.0,71.1,59.6,72.4,65.3,58.7,97,84,47,30.11,30.01,7,1,9,0.00
2013-6-13,84.9,70.5,63.4,69.6,63.9,60.5,97,82,47,30.01,29.82,10,1,25,0.37
2013-6-14,73.8,64.1,54.3,62.9,56.0,50.9,97,77,46,30.11,29.89,8,1,13,0.01
2013-6-15,79.7,64.9,51.9,65.0,57.5,50.8,97,79,45,30.20,30.10,6,0,8,0.00
2013-6-16,80.7,68.6,57.1,68.7,62.5,56.3,98,82,53,30.20,30.08,7,0,8,0.00
2013-6-17,78.4,68.9,64.0,71.4,65.7,62.8,97,90,66,30.11,30.00,7,0,14,0.09
2013-6-18,78.8,67.6,62.8,69.4,64.6,60.9,98,91,63,30.02,29.88,5,0,6,0.02
2013-6-19,78.1,66.3,56.8,66.2,60.9,56.0,98,84,55,30.17,29.99,4,0,5,0.00
2013-6-20,79.3,66.8,57.5,67.8,61.4,56.5,98,84,59,30.28,30.17,6,1,9,0.00
2013-6-21,79.7,67.4,58.2,65.3,61.0,57.4,98,82,51,30.32,30.22,7,1,13,0.00
2013-6-22,81.2,66.9,57.2,64.6,58.5,50.8,98,77,38,30.31,30.17,7,1,11,0.00
2013-6-23,77.5,66.7,57.8,71.4,63.6,57.0,98,90,69,30.28,30.18,6,0,9,0.16
2013-6-24,80.7,69.4,60.9,71.9,65.9,60.3,99,89,61,30.29,30.16,5,0,7,0.08
2013-6-25,79.9,68.0,60.8,70.8,65.1,60.2,98,91,67,30.23,30.09,7,0,10,0.16
2013-6-26,82.3,69.4,60.7,72.8,66.4,60.1,99,91,58,30.13,29.99,4,0,9,0.00
2013-6-27,81.9,69.9,62.6,74.8,67.2,61.7,100,92,66,30.03,29.84,11,1,13,0.34
2013-6-28,84.0,71.1,62.7,71.9,66.4,61.8,98,87,52,29.91,29.72,8,0,16,0.04
2013-6-29,80.2,66.7,57.0,67.1,61.5,56.4,98,85,49,29.79,29.72,7,0,9,0.00
2013-6-30,80.8,66.8,56.5,67.1,61.3,55.4,97,84,53,29.88,29.76,8,0,12,0.04
2013-7-1,77.1,67.0,61.6,70.3,64.2,61.0,98,91,69,30.01,29.86,8,1,13,0.76
2013-7-2,80.4,68.0,61.4,70.5,64.7,60.7,99,90,58,30.17,30.00,5,0,9,0.21
2013-7-3,71.2,65.4,60.5,70.3,64.4,59.9,98,97,91,30.27,30.15,6,0,9,3.35
2013-7-4,71.1,64.5,60.4,70.0,64.0,59.8,99,98,95,30.27,30.20,3,0,5,1.26
2013-7-5,77.3,68.1,63.5,69.9,66.0,63.2,99,94,66,30.28,30.21,4,0,13,0.32
2013-7-6,79.3,68.7,63.6,71.2,66.8,63.2,99,94,69,30.26,30.17,5,0,16,0.98
2013-7-7,77.5,69.7,64.9,74.7,68.1,64.5,99,95,83,30.22,30.15,4,0,8,0.48
2013-7-8,82.3,70.9,65.7,73.8,67.7,64.5,99,91,64,30.27,30.18,6,0,9,0.09
2013-7-9,89.3,70.8,63.0,75.5,67.0,-5.9,99,90,3,30.24,30.12,0,0,0,0.00
2013-7-19,72.7,70.5,68.7,68.0,67.2,66.6,93,90,84,30.13,30.10,2,0,4,0.00
2013-7-20,80.9,70.4,64.7,73.0,67.7,64.1,99,92,67,30.12,30.00,7,0,12,0.87
2013-7-21,80.7,69.2,63.3,72.1,66.5,63.0,99,92,67,30.09,30.01,8,1,15,0.96
2013-7-22,81.9,69.5,61.5,71.8,66.0,61.2,100,90,61,30.07,29.89,5,0,10,0.06
2013-7-23,82.2,70.3,61.6,71.3,65.3,61.3,99,86,56,29.98,29.87,9,1,13,0.22
2013-7-24,82.1,69.5,62.6,72.4,66.0,60.6,100,90,50,29.94,29.87,5,0,7,0.19
2013-7-25,81.6,68.7,60.7,69.5,64.0,59.7,99,87,53,30.10,29.83,6,1,8,0.00
2013-7-26,80.4,67.7,57.7,69.6,63.2,57.4,99,87,60,30.14,29.95,4,0,7,0.00
2013-7-27,77.2,69.0,64.1,70.7,66.2,63.5,99,92,71,30.08,29.83,3,0,5,0.06
2013-7-28,82.5,69.0,60.9,68.9,63.0,55.2,99,84,41,30.09,29.86,7,0,13,0.00
2013-7-29,78.8,66.0,57.2,65.6,60.1,56.8,99,83,52,30.26,29.99,7,1,12,0.00
2013-7-30,79.0,66.9,55.9,69.7,62.0,55.2,98,85,64,30.28,30.11,5,0,7,0.00
2013-7-31,75.6,68.3,64.1,70.3,66.2,63.5,99,93,77,30.24,29.91,4,0,4,0.09
2013-8-1,79.7,69.5,62.2,71.8,66.1,61.3,99,90,68,30.05,29.86,9,1,13,0.09
2013-8-2,80.7,69.3,60.3,71.2,65.0,60.0,99,87,62,30.11,29.91,6,0,7,0.00
2013-8-3,80.2,69.4,61.3,71.3,64.8,58.0,99,87,53,30.10,29.93,7,0,8,0.00
2013-8-4,79.3,68.8,61.1,68.3,63.1,57.7,99,84,53,30.12,29.94,10,1,12,0.00
2013-8-5,81.6,68.2,57.8,70.2,62.7,57.2,99,84,55,30.13,29.92,4,0,7,0.00
2013-8-6,80.7,70.3,63.2,70.8,65.8,62.3,98,87,61,30.09,29.91,6,0,10,0.00
2013-8-7,74.0,68.7,64.8,70.6,67.2,64.5,99,95,85,30.12,29.95,2,0,4,0.62
2013-8-8,77.8,68.7,62.4,72.9,67.2,62.1,100,95,77,30.12,29.95,5,0,7,0.28
2013-8-9,84.0,71.1,64.4,74.3,68.4,64.4,100,92,60,30.16,29.98,12,0,18,0.02
2013-8-10,80.8,71.2,64.9,74.8,69.1,64.6,100,93,74,30.20,30.00,6,0,8,0.05
2013-8-11,80.6,70.3,63.7,74.6,68.2,63.4,100,94,72,30.22,30.02,6,0,10,0.08
2013-8-12,83.9,70.9,63.2,73.3,68.2,63.2,100,92,59,30.18,29.94,7,0,10,0.32
2013-8-13,81.8,69.2,64.1,72.5,67.2,63.8,100,94,62,30.06,29.80,7,0,11,0.08
2013-8-14,72.6,65.6,59.5,65.3,61.7,58.1,100,88,66,30.06,29.86,5,0,10,0.01
2013-8-15,68.0,61.0,54.8,60.1,57.1,54.2,99,87,70,30.11,30.02,7,1,11,0.00
2013-8-16,70.9,61.0,53.0,61.5,56.7,52.5,99,87,64,30.13,30.05,4,0,11,0.00
2013-8-17,67.2,61.7,57.6,62.1,58.4,53.8,99,89,71,30.15,30.07,5,0,16,0.05
2013-8-18,74.3,64.7,60.4,69.2,63.5,59.9,99,96,76,30.18,30.08,2,0,6,0.22
2013-8-19,70.8,64.6,62.5,68.4,64.0,62.2,100,98,87,30.15,30.05,1,0,3,1.45
2013-8-20,77.4,67.6,61.6,71.2,65.7,61.3,100,94,75,30.16,30.07,2,0,6,0.01
2013-8-21,73.5,66.9,61.7,70.7,65.7,61.4,100,96,86,30.19,30.09,1,0,5,0.01
2013-8-22,80.8,68.8,59.3,71.8,65.6,59.3,100,90,64,30.15,30.00,4,0,9,0.00
2013-8-23,79.8,66.8,60.1,71.6,64.3,60.1,100,93,65,30.06,29.95,4,0,10,0.00
2013-8-24,76.7,65.5,58.1,64.8,61.7,56.4,99,89,60,30.27,30.05,4,0,11,0.00
2013-8-25,76.3,62.6,52.8,61.4,56.6,52.3,99,83,47,30.36,30.24,4,0,12,0.00
2013-8-26,77.7,62.6,53.0,64.9,58.5,52.7,100,88,51,30.32,30.13,2,0,9,0.00
2013-8-27,78.9,66.5,57.5,70.3,63.2,57.2,100,90,65,30.16,30.01,2,0,9,0.00
2013-8-28,82.4,70.4,62.8,71.7,66.5,62.2,99,88,61,30.04,29.92,5,0,9,0.00
2013-8-29,83.9,73.7,65.5,73.0,69.2,64.6,97,87,63,29.95,29.88,9,0,10,0.00
2013-8-30,79.7,71.7,67.3,71.8,68.6,66.4,98,91,71,29.99,29.88,6,1,10,0.00
2013-8-31,81.8,69.4,61.5,72.5,67.2,61.2,100,93,68,29.93,29.82,5,0,13,0.58
2013-9-1,82.7,69.4,63.1,73.3,66.9,63.1,100,92,62,29.88,29.76,7,0,15,0.72
2013-9-2,79.2,68.9,61.3,73.6,67.1,61.3,100,95,78,29.89,29.79,1,0,6,0.26
2013-9-3,79.6,66.7,60.8,71.6,64.0,60.0,100,92,64,29.98,29.82,4,0,22,0.50
2013-9-4,80.5,67.2,58.3,70.2,63.6,58.3,100,90,60,30.09,29.97,2,0,11,0.00
2013-9-5,80.7,66.6,58.2,68.9,62.3,57.5,100,88,54,30.13,30.05,2,0,7,0.00
2013-9-6,78.1,64.8,55.6,66.3,60.1,55.2,99,87,57,30.16,30.04,4,0,12,0.00
2013-9-7,78.6,64.7,55.6,68.9,61.8,55.6,100,92,61,30.10,29.97,2,0,7,0.00
2013-9-8,77.7,66.1,59.6,69.4,63.6,59.6,100,92,65,30.00,29.92,2,0,7,0.00
2013-9-9,81.7,68.8,61.2,70.7,65.1,60.9,100,89,60,30.11,30.00,4,0,11,0.00
2013-9-10,81.6,68.3,59.1,71.7,64.4,59.1,100,89,58,30.21,30.10,2,0,7,0.00
2013-9-11,82.7,68.5,57.5,71.1,64.6,56.7,99,88,59,30.21,30.06,4,0,9,0.71
2013-9-12,77.8,67.7,61.7,70.9,65.5,61.1,100,93,68,30.08,29.85,4,0,22,0.06
2013-9-13,73.4,63.5,52.5,62.6,57.9,50.1,100,84,45,29.92,29.80,7,1,15,0.03
2013-9-14,71.4,57.1,47.3,60.9,52.7,47.0,99,87,56,30.11,29.91,5,0,9,0.00
2013-9-15,74.2,60.2,50.4,64.9,56.8,50.1,100,90,58,30.19,30.07,5,0,9,0.00
2013-9-16,77.0,62.2,52.7,65.1,58.8,52.5,100,90,58,30.15,30.07,5,0,6,0.00
2013-9-17,68.0,61.4,57.4,60.6,57.1,53.2,98,87,65,30.25,30.14,9,1,9,0.00
2013-9-18,65.4,59.5,53.5,60.1,56.6,52.4,98,90,75,30.23,30.14,5,0,5,0.00
2013-9-19,75.0,63.6,57.7,67.1,61.3,57.1,99,93,69,30.16,30.05,7,0,7,0.00
2013-9-20,76.7,64.9,56.9,68.8,62.3,56.9,100,92,67,30.07,29.88,6,0,6,0.01
2013-9-21,66.7,60.5,57.2,65.8,60.1,56.9,100,98,93,29.90,29.68,9,0,9,1.54
2013-9-22,70.1,59.1,51.2,58.9,55.2,50.9,100,88,61,29.91,29.74,9,1,9,0.01
2013-9-23,71.4,57.6,48.4,63.0,54.6,48.4,100,91,62,30.03,29.91,8,0,8,0.00
2013-9-24,71.8,59.1,49.1,63.9,56.5,49.1,100,92,67,30.06,29.90,8,0,10,0.00
2013-9-25,61.2,59.4,56.7,60.6,58.9,56.4,99,99,97,29.91,29.81,5,0,6,1.48
2013-9-26,69.4,59.6,54.1,64.4,58.3,53.8,100,96,76,30.03,29.86,5,0,5,0.00
2013-9-27,71.2,57.2,48.8,61.3,55.0,48.5,100,93,56,30.26,30.03,6,0,7,0.01
2013-9-28,69.1,58.9,48.7,59.3,54.6,48.4,100,87,60,30.27,30.11,6,0,10,0.00
2013-9-29,69.4,57.4,50.3,59.1,53.5,49.5,98,88,58,30.15,30.00,6,0,9,0.00
2013-9-30,69.6,59.0,50.6,61.1,55.5,50.3,99,89,63,30.07,29.97,7,0,11,0.00
2013-10-1,72.3,59.3,50.1,63.8,57.0,50.1,100,93,65,30.14,30.04,4,0,6,0.01
2013-10-2,74.0,60.7,52.4,64.4,57.8,52.4,100,91,57,30.17,30.06,2,0,7,0.00
2013-10-3,74.8,62.7,55.5,65.9,60.0,55.2,100,92,64,30.13,30.04,4,0,10,0.00
2013-10-4,76.8,63.1,55.2,66.0,59.9,55.2,100,91,59,30.15,30.06,2,0,6,0.00
2013-10-5,79.5,64.6,55.8,67.2,61.2,55.8,100,90,56,30.13,30.00,3,0,9,0.00
2013-10-6,77.1,63.6,53.6,65.4,59.3,53.6,100,88,55,30.03,29.85,4,0,12,0.10
2013-10-7,62.8,56.5,47.3,62.1,55.7,47.0,99,97,82,30.03,29.76,2,0,7,1.06
2013-10-8,65.5,52.5,44.1,54.4,48.2,44.1,100,87,55,30.21,30.03,10,1,12,0.01
2013-10-9,69.5,53.8,43.2,59.6,50.2,42.9,99,89,58,30.23,30.10,4,0,7,0.00
2013-10-10,68.7,55.5,48.3,57.3,51.8,48.2,100,89,58,30.13,30.02,9,0,12,0.00
2013-10-11,71.3,57.4,49.0,57.0,51.4,41.3,100,84,35,30.05,29.96,12,1,16,0.00
2013-10-12,70.0,59.4,51.9,61.8,56.0,51.3,99,89,64,30.09,29.99,7,0,16,0.00
2013-10-13,70.7,62.1,57.1,62.0,59.1,56.2,99,91,68,30.18,30.08,6,0,7,0.01
2013-10-14,67.9,60.0,53.9,61.3,58.2,53.4,99,94,74,30.19,30.09,6,0,7,0.15
2013-10-15,66.8,58.9,54.1,59.1,56.2,53.8,99,91,73,30.16,30.01,5,0,10,0.00
2013-10-16,66.8,56.8,48.3,59.8,54.1,48.0,99,91,72,30.04,29.93,5,0,5,0.00
2013-10-17,67.5,60.1,56.0,64.4,59.0,54.5,99,96,87,29.95,29.80,4,0,6,0.05
2013-10-18,66.5,54.8,49.3,57.5,51.0,47.4,98,88,63,30.00,29.89,7,1,9,0.00
2013-10-19,62.5,52.5,44.7,54.2,48.3,38.8,99,88,42,29.95,29.82,6,0,11,0.00
2013-10-20,66.8,46.4,36.1,53.7,41.7,35.8,99,86,41,30.09,29.94,5,0,9,0.00
2013-10-21,65.4,48.1,37.8,55.5,45.1,37.5,100,91,58,30.15,29.99,5,0,9,0.00
2013-10-22,64.6,53.0,45.3,54.4,49.1,44.5,98,88,49,30.02,29.80,7,0,11,0.00
2013-10-23,52.8,44.4,34.7,44.3,36.2,29.1,98,75,42,30.05,29.74,13,2,22,0.00
2013-10-24,51.2,37.1,28.6,38.8,31.7,27.5,97,82,51,30.19,30.04,3,0,11,0.00
2013-10-25,45.6,35.8,27.5,34.8,27.7,21.9,91,74,42,30.39,30.19,5,1,13,0.00
2013-10-26,57.6,37.0,23.4,41.4,30.3,22.7,98,80,37,30.38,30.11,3,0,10,0.00
2013-10-27,61.1,50.2,41.7,51.4,44.6,38.2,97,82,58,30.14,30.06,4,0,7,0.00
2013-10-28,59.1,51.4,44.8,54.5,50.0,44.3,99,95,75,30.26,30.11,2,0,4,0.00
2013-10-29,64.9,53.3,46.0,55.6,49.9,45.7,100,89,58,30.33,30.22,3,0,7,0.02
2013-10-30,73.4,57.1,48.5,58.7,51.9,47.6,98,85,49,30.27,30.14,6,0,13,0.00
2013-10-31,67.3,59.4,51.0,58.4,53.6,50.4,99,83,61,30.15,29.73,6,1,19,0.00
2013-11-1,73.3,61.3,49.9,59.1,49.1,31.1,98,70,22,29.73,29.58,8,1,29,0.01
2013-11-2,56.9,47.0,40.9,46.4,40.7,35.6,94,80,51,30.03,29.72,7,1,18,0.03
2013-11-3,54.3,43.2,36.4,39.7,36.5,33.7,93,79,48,30.36,30.02,6,0,12,0.00
2013-11-4,54.6,41.6,33.7,37.7,33.3,30.4,95,75,41,30.50,30.36,10,2,19,0.00
2013-11-5,59.2,42.6,32.3,39.6,32.4,24.6,93,72,27,30.53,30.41,5,0,9,0.00
2013-11-6,65.6,51.2,42.3,54.0,47.9,39.6,99,90,59,30.43,30.11,8,0,12,0.03
2013-11-7,58.2,47.1,35.0,54.2,42.0,29.6,100,84,41,30.18,30.00,7,0,22,0.06
2013-11-8,53.2,37.8,29.6,30.7,25.5,13.0,88,65,21,30.33,30.18,5,0,10,0.00
2013-11-9,53.4,38.3,26.1,38.8,30.0,24.2,94,74,40,30.38,30.25,2,0,4,0.00
2013-11-10,62.3,46.4,35.1,38.6,32.2,25.4,88,62,25,30.31,30.20,8,1,20,0.00
2013-11-11,61.8,41.5,29.1,38.5,30.8,25.4,88,69,28,30.33,30.17,4,0,8,0.00
2013-11-12,48.3,36.8,23.1,37.7,27.9,13.0,84,70,50,30.49,30.12,7,1,19,0.00
2013-11-13,43.3,27.5,18.8,21.5,15.4,9.9,85,63,29,30.61,30.50,5,0,10,0.00
2013-11-14,57.7,32.9,21.1,27.3,21.3,14.9,89,68,20,30.53,30.34,3,0,8,0.00
2013-11-15,47.4,38.7,27.9,43.3,32.7,22.2,98,81,41,30.37,30.21,1,0,2,0.04
2013-11-16,57.5,48.2,40.3,53.7,47.1,39.8,99,96,84,30.30,30.18,2,0,4,0.00
2013-11-17,64.8,56.1,50.4,57.4,53.9,49.6,99,93,73,30.20,29.87,5,0,22,0.27
2013-11-18,61.9,52.2,40.3,58.8,41.9,29.3,100,71,34,30.07,29.83,8,2,18,0.09
2013-11-19,52.6,40.1,32.2,31.8,27.6,14.4,85,64,23,30.26,30.06,4,0,16,0.00
2013-11-20,49.6,36.8,28.7,31.9,27.7,24.7,91,72,38,30.47,30.25,6,1,14,0.00
2013-11-21,52.9,44.3,33.4,49.9,41.7,30.8,99,91,78,30.51,30.39,2,0,4,0.00
2013-11-22,67.6,55.0,45.8,56.9,51.8,45.5,99,90,62,30.42,30.14,4,0,6,0.00
2013-11-23,55.1,45.6,31.4,54.3,38.8,21.1,97,78,50,30.25,30.10,8,1,21,0.00
2013-11-24,36.5,25.9,19.0,21.2,12.4,5.2,78,59,29,30.54,30.24,6,1,18,0.00
2013-11-25,35.8,26.8,17.1,24.6,15.3,11.4,82,63,41,30.58,30.35,2,0,6,0.00
2013-11-26,44.0,37.1,30.0,43.6,36.1,23.6,99,96,74,30.36,29.72,3,0,8,1.51
2013-11-27,42.9,29.1,18.6,42.1,25.5,15.4,98,86,72,30.27,29.67,12,2,26,0.09
2013-11-28,39.5,24.8,13.5,33.0,22.0,12.1,97,89,72,30.55,30.27,3,0,14,0.10
2013-11-29,43.0,30.0,22.7,35.4,27.5,22.0,97,91,71,30.65,30.53,4,0,5,0.02
2013-11-30,47.6,31.2,24.6,33.3,27.4,23.6,97,87,48,30.65,30.42,3,0,4,0.01
2013-12-1,49.7,33.2,25.5,39.9,30.9,24.9,99,92,66,30.42,30.15,3,0,5,0.00
2013-12-2,52.2,40.8,30.4,44.7,37.1,29.9,99,88,60,30.14,29.90,2,0,6,0.01
2013-12-3,57.4,46.1,38.4,48.8,43.1,37.6,98,90,69,30.01,29.91,3,0,6,0.00
2013-12-4,62.2,49.7,44.7,55.6,48.0,43.9,99,94,77,30.12,29.99,3,0,6,0.00
2013-12-5,68.7,56.2,46.8,62.2,54.3,46.3,100,94,73,30.15,30.02,2,0,5,0.32
2013-12-6,69.9,61.0,49.5,64.2,58.1,48.8,100,91,67,30.08,29.93,5,0,14,0.29
2013-12-7,50.0,43.4,38.2,49.7,41.6,37.8,99,93,82,30.41,30.04,5,0,10,0.01
2013-12-8,42.2,37.8,34.8,40.3,36.7,34.4,99,96,92,30.39,30.25,7,1,11,0.18
2013-12-9,49.0,42.7,34.8,48.7,42.4,34.5,100,99,98,30.26,30.10,1,0,4,0.28
2013-12-10,44.3,38.3,24.2,44.0,32.9,15.1,99,83,49,30.40,29.98,11,1,22,0.41
2013-12-11,43.6,29.2,19.8,26.9,21.8,18.8,97,76,41,30.55,30.40,2,0,5,0.01
2013-12-12,39.0,28.5,21.8,24.1,15.2,-7.5,89,62,14,30.53,30.45,6,0,14,0.00
2013-12-13,45.2,30.4,19.4,27.9,19.3,12.8,84,65,34,30.50,30.35,0,0,4,0.00
2013-12-14,41.4,37.7,33.4,40.2,35.0,25.4,99,90,70,30.39,29.89,1,0,4,0.68
2013-12-15,40.9,34.1,24.4,39.8,30.4,23.7,99,87,60,30.25,29.87,8,1,18,0.01
2013-12-16,52.1,32.8,22.4,34.6,27.3,21.7,98,84,35,30.35,30.25,4,0,18,0.00
2013-12-17,56.7,39.4,28.2,36.2,29.1,22.1,98,72,35,30.31,30.08,10,1,28,0.01
2013-12-18,46.0,32.6,25.5,23.8,19.2,5.3,85,60,27,30.44,30.21,6,1,25,0.00
2013-12-19,56.4,38.0,26.8,37.9,28.8,21.5,90,71,35,30.48,30.33,1,0,4,0.02
2013-12-20,62.6,43.6,33.0,42.5,34.0,26.8,92,71,36,30.35,30.21,4,0,8,0.00
2013-12-21,67.0,56.5,40.9,60.7,53.3,39.0,99,89,74,30.26,29.99,6,1,15,0.18
2013-12-22,64.4,57.4,52.8,61.2,56.2,52.5,100,96,75,30.10,29.94,7,1,21,2.81
2013-12-23,53.6,45.9,31.5,53.6,44.2,29.5,100,94,84,30.28,30.07,5,0,10,0.17
2013-12-24,33.2,28.2,18.3,29.4,21.6,14.8,96,77,51,30.40,30.24,10,1,20,0.00
2013-12-25,38.6,23.0,15.2,25.3,18.3,13.3,93,83,45,30.44,30.30,2,0,4,0.00
2013-12-26,43.5,27.1,20.1,32.2,23.9,18.4,96,88,56,30.37,30.27,2,0,4,0.00
2013-12-27,42.5,29.1,22.8,34.1,26.7,21.9,98,91,68,30.59,27.77,2,0,2,0.01
2013-12-28,42.4,33.3,23.8,40.0,30.6,22.6,99,91,57,30.55,30.19,2,0,3,0.32
2013-12-29,53.3,40.5,34.3,48.3,39.1,33.4,99,95,77,30.19,29.89,10,0,10,0.42
2013-12-30,42.2,36.6,32.9,39.1,35.3,32.1,99,95,83,30.25,30.07,4,0,7,0.00
2013-12-31,42.0,31.2,24.5,32.7,25.9,13.3,99,84,32,30.48,30.23,4,0,14,0.00
2014-1-1,44.3,30.3,23.5,34.0,26.0,21.6,95,85,54,30.47,30.24,4,0,4,0.00
2014-1-2,47.2,33.3,18.1,44.1,30.4,12.8,98,89,74,30.24,29.77,21,4,29,0.08